Time;durP1;ratioP1;P1;durP2;ratioP2;P2;SDS_P1;SDS_P2;PMS_P1;PMS_P2;Temp;Humidity;BMP_temperature;BMP_pressure;BME280_temperature;BME280_humidity;BME280_pressure;Samples;Min_cycle;Max_cycle;Signal;HPM_P1;HPM_P2
2021/05/14 00:01:03;;;;;;;36.65;21.52;;;12.30;99.90;;;;;;5037162;28;20671;-67
2021/05/14 00:03:29;;;;;;;43.50;22.75;;;12.10;99.90;;;;;;5031561;28;20527;-66
2021/05/14 00:05:54;;;;;;;38.83;22.23;;;11.90;99.90;;;;;;5027013;28;20064;-67
2021/05/14 00:08:38;;;;;;;44.58;22.13;;;11.80;99.90;;;;;;5027834;28;20075;-66
2021/05/14 00:14:08;;;;;;;45.15;24.33;;;11.90;99.90;;;;;;5020974;28;20151;-66
2021/05/14 00:16:52;;;;;;;49.92;27.55;;;11.70;99.90;;;;;;5023891;28;20104;-67
2021/05/14 00:19:18;;;;;;;50.20;26.95;;;11.60;99.90;;;;;;5020979;28;20668;-65
2021/05/14 00:25:05;;;;;;;49.97;25.27;;;11.50;99.90;;;;;;5032587;28;20039;-67
2021/05/14 00:33:18;;;;;;;42.20;23.85;;;11.70;99.90;;;;;;5013097;28;20571;-67
2021/05/14 00:39:06;;;;;;;43.75;23.95;;;11.70;99.90;;;;;;5024029;28;20072;-66
2021/05/14 00:41:31;;;;;;;46.35;23.63;;;11.80;99.90;;;;;;5028447;28;20105;-66
2021/05/14 00:43:57;;;;;;;52.67;24.75;;;11.70;99.90;;;;;;5037423;28;20085;-66
2021/05/14 00:52:14;;;;;;;48.28;24.20;;;11.50;99.90;;;;;;5016118;28;20113;-67
2021/05/14 00:54:40;;;;;;;51.05;24.33;;;11.60;99.90;;;;;;5037585;28;20756;-68
2021/05/14 00:57:07;;;;;;;52.20;26.02;;;11.50;99.90;;;;;;5022375;28;20030;-66
2021/05/14 00:59:33;;;;;;;48.40;24.80;;;11.50;99.90;;;;;;5023460;28;20030;-67
2021/05/14 01:01:58;;;;;;;50.50;24.63;;;11.30;99.90;;;;;;5029537;28;20029;-66
2021/05/14 01:04:24;;;;;;;50.45;24.63;;;11.20;99.90;;;;;;5025818;28;20461;-67
2021/05/14 01:06:50;;;;;;;47.83;24.52;;;11.40;99.90;;;;;;5022702;28;20029;-68
2021/05/14 01:09:35;;;;;;;51.67;26.42;;;11.40;99.90;;;;;;5024101;28;20061;-67
2021/05/14 01:12:01;;;;;;;53.95;24.67;;;11.50;99.90;;;;;;5026285;28;20029;-66
2021/05/14 01:14:45;;;;;;;46.17;23.30;;;11.40;99.90;;;;;;5027556;28;20025;-66
2021/05/14 01:17:48;;;;;;;54.33;24.90;;;11.50;99.90;;;;;;5026342;28;20416;-67
2021/05/14 01:23:17;;;;;;;55.00;26.48;;;11.60;99.90;;;;;;5022150;28;20073;-68
2021/05/14 01:25:43;;;;;;;56.83;26.55;;;11.40;99.90;;;;;;5018912;28;20069;-65
2021/05/14 01:31:12;;;;;;;60.67;27.30;;;11.20;99.90;;;;;;5024748;28;20044;-66
2021/05/14 01:33:38;;;;;;;59.92;28.77;;;11.30;99.90;;;;;;5013975;28;20022;-66
2021/05/14 01:36:05;;;;;;;65.75;28.70;;;11.40;99.90;;;;;;5033729;28;20443;-66
2021/05/14 01:38:50;;;;;;;62.00;27.55;;;11.20;99.90;;;;;;5026544;28;20094;-66
2021/05/14 01:41:15;;;;;;;60.10;28.00;;;11.20;99.90;;;;;;5022798;28;20060;-66
2021/05/14 01:46:44;;;;;;;;;;;11.10;99.90;;;;;;5022989;28;20056;-66
2021/05/14 01:49:28;;;;;;;58.70;26.55;;;10.90;99.90;;;;;;5011706;28;20522;-66
2021/05/14 01:51:54;;;;;;;75.47;29.95;;;10.90;99.90;;;;;;5014604;28;20131;-66
2021/05/14 01:54:38;;;;;;;69.10;30.23;;;10.90;99.90;;;;;;5020312;28;20079;-67
2021/05/14 01:59:48;;;;;;;65.50;29.15;;;10.90;99.90;;;;;;5017550;28;20052;-67
2021/05/14 02:02:18;;;;;;;75.88;31.00;;;10.90;99.90;;;;;;5025397;28;20489;-67
2021/05/14 02:04:45;;;;;;;79.85;31.73;;;10.90;99.90;;;;;;5023315;28;20026;-68
2021/05/14 02:07:37;;;;;;;70.32;30.25;;;10.90;99.90;;;;;;5024425;28;20025;-71
2021/05/14 02:10:04;;;;;;;73.93;29.60;;;10.80;99.90;;;;;;5018203;28;20050;-66
2021/05/14 02:15:52;;;;;;;62.25;28.45;;;10.90;99.90;;;;;;5019619;28;20099;-66
2021/05/14 02:18:17;;;;;;;70.50;30.40;;;10.90;99.90;;;;;;5015782;28;20033;-68
2021/05/14 02:21:02;;;;;;;68.32;28.85;;;10.90;99.90;;;;;;5027292;28;20029;-66
2021/05/14 02:23:28;;;;;;;71.18;29.63;;;10.90;99.90;;;;;;5022291;28;20032;-67
2021/05/14 02:26:13;;;;;;;67.85;29.50;;;10.90;99.90;;;;;;5025270;28;20055;-65
2021/05/14 02:28:38;;;;;;;74.28;31.73;;;10.80;99.90;;;;;;5024265;28;20095;-64
2021/05/14 02:31:04;;;;;;;68.47;30.85;;;10.70;99.90;;;;;;5018622;28;20627;-67
2021/05/14 02:33:49;;;;;;;76.28;31.00;;;10.70;99.90;;;;;;5024880;28;20103;-67
2021/05/14 02:36:33;;;;;;;67.13;29.02;;;10.70;99.90;;;;;;5034819;28;20021;-67
2021/05/14 02:42:03;;;;;;;80.45;30.98;;;10.70;99.90;;;;;;5028567;28;20113;-66
2021/05/14 02:45:06;;;;;;;74.55;30.05;;;10.80;99.90;;;;;;5025218;28;20029;-67
2021/05/14 02:47:50;;;;;;;71.20;29.15;;;10.80;99.90;;;;;;5029186;28;20022;-67
2021/05/14 02:54:16;;;;;;;71.10;30.05;;;10.70;99.90;;;;;;5022348;28;20081;-66
2021/05/14 02:56:41;;;;;;;85.22;30.67;;;10.70;99.90;;;;;;5021763;28;20022;-65
2021/05/14 02:59:25;;;;;;;85.25;33.17;;;10.60;99.90;;;;;;5023909;28;20049;-66
2021/05/14 03:01:51;;;;;;;76.13;32.10;;;10.70;99.90;;;;;;5028959;28;20025;-70
2021/05/14 03:04:36;;;;;;;77.38;32.97;;;10.70;99.90;;;;;;5028622;28;20026;-67
2021/05/14 03:10:23;;;;;;;76.68;31.67;;;10.70;99.90;;;;;;5024810;28;20635;-66
2021/05/14 03:18:56;;;;;;;88.93;33.03;;;10.80;99.90;;;;;;5020927;28;20515;-67
2021/05/14 03:21:21;;;;;;;82.35;31.67;;;10.90;99.90;;;;;;5029730;28;20029;-67
2021/05/14 03:26:31;;;;;;;90.97;33.45;;;10.80;99.90;;;;;;5026995;28;20716;-65
2021/05/14 03:28:57;;;;;;;87.85;33.28;;;10.60;99.90;;;;;;5030963;28;20029;-66
2021/05/14 03:31:22;;;;;;;70.75;31.05;;;10.70;99.90;;;;;;5040207;28;20028;-68
2021/05/14 03:33:48;;;;;;;87.68;33.80;;;10.80;99.90;;;;;;5039076;28;20077;-68
2021/05/14 03:36:33;;;;;;;80.95;30.85;;;10.80;99.90;;;;;;5044151;28;20295;-67
2021/05/14 03:38:59;;;;;;;81.93;32.90;;;10.80;99.90;;;;;;5028080;28;20160;-65
2021/05/14 03:42:15;;;;;;;83.60;34.03;;;10.90;99.90;;;;;;5034256;28;20496;-65
2021/05/14 03:44:41;;;;;;;80.28;32.53;;;11.00;99.90;;;;;;5027123;28;20044;-66
2021/05/14 03:50:31;;;;;;;85.22;33.97;;;10.90;99.90;;;;;;5019192;28;20052;-66
2021/05/14 03:53:01;;;;;;;81.35;32.47;;;10.60;99.90;;;;;;5025696;28;20028;-67
2021/05/14 03:58:30;;;;;;;82.35;32.83;;;10.60;99.90;;;;;;5018479;28;20064;-67
2021/05/14 04:01:15;;;;;;;92.47;35.80;;;10.60;99.90;;;;;;5027035;28;20489;-66
2021/05/14 04:03:41;;;;;;;90.63;35.75;;;10.70;99.90;;;;;;5018977;28;20030;-68
2021/05/14 04:21:27;;;;;;;82.55;33.33;;;10.50;99.90;;;;;;5028064;28;20032;-67
2021/05/14 04:24:11;;;;;;;88.57;34.85;;;10.60;99.90;;;;;;5027743;28;20536;-65
2021/05/14 04:26:37;;;;;;;82.13;31.90;;;10.70;99.90;;;;;;5019929;28;20029;-66
2021/05/14 04:29:03;;;;;;;91.22;35.80;;;10.70;99.90;;;;;;5032244;28;20025;-68
2021/05/14 04:34:15;;;;;;;93.15;32.95;;;10.90;99.90;;;;;;5038970;28;20060;-65
2021/05/14 04:36:42;;;;;;;88.22;35.13;;;10.90;99.90;;;;;;5034942;28;20033;-68
2021/05/14 04:41:53;;;;;;;80.85;34.03;;;11.10;99.90;;;;;;5022493;28;20037;-68
2021/05/14 04:44:57;;;;;;;82.28;34.88;;;11.10;99.90;;;;;;5017243;28;20126;-66
2021/05/14 04:47:41;;;;;;;79.43;34.55;;;11.10;99.90;;;;;;5015416;28;20068;-66
2021/05/14 04:50:26;;;;;;;90.22;35.60;;;11.10;99.90;;;;;;5022386;28;20090;-66
2021/05/14 04:55:50;;;;;;;79.45;34.15;;;11.20;99.90;;;;;;5019513;28;20570;-67
2021/05/14 04:58:34;;;;;;;69.70;33.25;;;11.30;99.90;;;;;;5019031;28;20041;-67
2021/05/14 05:01:00;;;;;;;90.43;35.15;;;11.40;99.90;;;;;;5020660;28;20397;-66
2021/05/14 05:03:25;;;;;;;84.72;34.60;;;11.40;99.90;;;;;;5019603;28;20029;-68
2021/05/14 05:05:51;;;;;;;82.40;35.55;;;11.50;99.90;;;;;;5024269;28;20410;-67
2021/05/14 05:08:17;;;;;;;87.68;36.20;;;11.60;99.90;;;;;;5024267;28;20033;-66
2021/05/14 05:11:02;;;;;;;101.78;36.60;;;11.40;99.90;;;;;;5018649;28;20047;-66
2021/05/14 05:13:46;;;;;;;89.35;33.88;;;11.40;99.90;;;;;;5017182;28;20056;-67
2021/05/14 05:16:30;;;;;;;78.88;34.15;;;11.40;99.90;;;;;;5010323;28;20547;-67
2021/05/14 05:18:56;;;;;;;85.25;34.60;;;11.50;99.90;;;;;;5024472;28;20393;-69
2021/05/14 05:27:08;;;;;;;76.45;34.38;;;11.50;99.90;;;;;;5016335;28;20068;-67
2021/05/14 05:29:37;;;;;;;88.45;34.85;;;11.60;99.90;;;;;;5014249;28;20057;-66
2021/05/14 05:37:31;;;;;;;81.80;35.25;;;11.70;99.90;;;;;;5023955;28;20029;-66
2021/05/14 05:39:57;;;;;;;71.68;32.35;;;11.70;99.90;;;;;;5012559;28;20030;-65
2021/05/14 05:42:41;;;;;;;84.72;36.20;;;11.70;99.90;;;;;;5019593;28;20096;-67
2021/05/14 05:53:39;;;;;;;82.35;35.25;;;11.60;99.90;;;;;;5023018;28;20337;-69
2021/05/14 06:01:52;;;;;;;68.47;33.28;;;11.60;99.90;;;;;;5029864;28;20039;-69
2021/05/14 06:04:19;;;;;;;71.90;33.25;;;11.70;99.90;;;;;;5027854;28;20515;-70
2021/05/14 06:07:03;;;;;;;70.97;34.35;;;11.70;99.90;;;;;;5031481;28;20137;-68
2021/05/14 06:12:32;;;;;;;71.82;32.88;;;11.80;99.90;;;;;;5028654;28;20516;-68
2021/05/14 06:14:58;;;;;;;65.63;33.13;;;11.80;99.90;;;;;;5017927;28;20030;-67
2021/05/14 06:17:24;;;;;;;53.60;30.52;;;11.90;99.90;;;;;;5025336;28;20038;-68
2021/05/14 06:19:53;;;;;;;57.28;29.60;;;12.00;99.90;;;;;;5028273;28;20017;-70
2021/05/14 06:25:22;;;;;;;52.13;28.98;;;11.90;99.90;;;;;;5024276;28;20056;-68
2021/05/14 06:27:47;;;;;;;50.13;28.13;;;11.80;99.90;;;;;;5028713;28;20054;-69
2021/05/14 06:30:32;;;;;;;57.80;29.70;;;11.80;99.90;;;;;;5029841;28;20032;-70
2021/05/14 06:32:57;;;;;;;59.88;30.88;;;12.00;99.90;;;;;;5020531;28;20014;-68
2021/05/14 06:38:45;;;;;;;63.85;32.47;;;12.10;99.90;;;;;;5020626;28;20044;-68
2021/05/14 06:41:10;;;;;;;70.10;34.15;;;12.30;99.90;;;;;;5027393;28;20032;-68
2021/05/14 06:46:21;;;;;;;71.35;34.15;;;12.20;99.90;;;;;;5014176;28;20076;-68
2021/05/14 06:48:47;;;;;;;66.60;32.97;;;12.20;99.90;;;;;;5023271;28;20029;-67
2021/05/14 06:53:57;;;;;;;67.68;34.20;;;12.30;99.90;;;;;;5036408;28;20373;-67
2021/05/14 06:57:02;;;;;;;68.45;34.28;;;12.40;99.90;;;;;;5023657;28;20026;-70
2021/05/14 06:59:27;;;;;;;65.70;33.40;;;12.00;99.90;;;;;;5041574;28;20025;-70
2021/05/14 07:01:53;;;;;;;64.15;33.97;;;12.00;99.90;;;;;;5043612;28;20042;-72
2021/05/14 07:04:18;;;;;;;56.67;31.20;;;11.90;99.90;;;;;;5035396;28;20027;-70
2021/05/14 07:15:16;;;;;;;53.53;29.27;;;12.10;99.90;;;;;;5028235;28;20036;-69
2021/05/14 07:17:42;;;;;;;49.45;29.08;;;12.30;99.90;;;;;;5028349;28;20025;-69
2021/05/14 07:20:26;;;;;;;49.55;29.50;;;12.10;99.90;;;;;;5026597;28;20079;-68
2021/05/14 07:23:10;;;;;;;50.40;30.58;;;12.20;99.90;;;;;;5026475;28;20074;-70
2021/05/14 07:25:55;;;;;;;49.38;28.77;;;12.30;99.90;;;;;;5024875;28;20100;-69
2021/05/14 07:31:05;;;;;;;47.88;27.50;;;12.70;99.90;;;;;;5025508;28;20040;-70
2021/05/14 07:33:30;;;;;;;56.95;30.23;;;12.90;99.90;;;;;;5028218;28;20477;-69
2021/05/14 07:35:56;;;;;;;56.30;30.73;;;12.60;99.90;;;;;;5037950;28;20113;-71
2021/05/14 07:38:21;;;;;;;50.95;30.42;;;12.60;99.90;;;;;;5044532;28;20040;-68
2021/05/14 07:41:08;;;;;;;50.10;30.02;;;12.90;99.90;;;;;;5040484;28;20029;-70
2021/05/14 07:43:34;;;;;;;51.40;30.77;;;12.90;99.90;;;;;;5045197;28;20025;-69
2021/05/14 07:46:18;;;;;;;55.90;32.90;;;12.90;99.90;;;;;;5018113;28;20091;-68
2021/05/14 07:48:43;;;;;;;60.28;35.40;;;13.00;99.90;;;;;;5019129;28;20121;-68
2021/05/14 07:51:09;;;;;;;54.60;31.77;;;12.70;99.90;;;;;;5025958;28;20108;-68
2021/05/14 07:54:13;;;;;;;54.67;32.88;;;12.90;99.90;;;;;;5027389;28;20416;-71
2021/05/14 07:56:38;;;;;;;52.90;32.05;;;13.10;99.90;;;;;;5012229;28;20045;-70
2021/05/14 07:59:06;;;;;;;53.17;30.75;;;12.80;99.90;;;;;;5022819;28;20374;-69
2021/05/14 08:01:32;;;;;;;51.22;29.73;;;12.80;99.90;;;;;;5036794;28;20025;-72
2021/05/14 08:03:57;;;;;;;48.03;29.13;;;12.80;99.90;;;;;;5027200;28;20029;-69
2021/05/14 08:06:42;;;;;;;54.65;30.70;;;13.10;99.90;;;;;;5029458;28;20036;-68
2021/05/14 08:09:10;;;;;;;48.40;30.95;;;13.20;99.90;;;;;;5024576;28;20388;-69
2021/05/14 08:14:39;;;;;;;48.63;29.00;;;13.10;99.90;;;;;;5026536;28;20032;-68
2021/05/14 08:17:05;;;;;;;46.72;27.67;;;13.00;99.90;;;;;;5026609;28;20051;-69
2021/05/14 08:20:09;;;;;;;44.50;27.73;;;13.10;99.90;;;;;;5027740;28;20029;-68
2021/05/14 08:22:53;;;;;;;45.67;27.85;;;13.50;99.90;;;;;;5033811;28;20025;-68
2021/05/14 08:25:19;;;;;;;44.00;28.52;;;13.80;99.90;;;;;;5026992;28;20433;-69
2021/05/14 08:28:04;;;;;;;42.42;26.33;;;14.00;99.90;;;;;;5024522;28;20030;-69
2021/05/14 08:30:29;;;;;;;46.33;26.35;;;13.60;99.90;;;;;;5027465;28;20397;-68
2021/05/14 08:32:55;;;;;;;46.45;26.92;;;13.40;99.90;;;;;;5027332;28;20033;-68
2021/05/14 08:35:21;;;;;;;41.80;26.10;;;13.30;99.90;;;;;;5032740;28;20102;-68
2021/05/14 08:37:48;;;;;;;43.80;25.55;;;13.20;99.90;;;;;;5040592;28;20032;-69
2021/05/14 08:43:17;;;;;;;42.15;26.13;;;13.50;99.90;;;;;;5019812;28;20056;-67
2021/05/14 08:49:06;;;;;;;43.20;24.95;;;14.20;99.90;;;;;;5014333;28;20819;-68
2021/05/14 08:51:52;;;;;;;43.40;26.35;;;14.60;99.90;;;;;;5022499;28;20018;-68
2021/05/14 08:57:21;;;;;;;35.97;23.63;;;14.80;99.90;;;;;;5019904;28;20550;-68
2021/05/14 09:00:05;;;;;;;33.42;22.98;;;15.00;99.90;;;;;;5033772;28;20910;-69
2021/05/14 09:02:35;;;;;;;39.88;24.83;;;15.40;99.90;;;;;;5019394;28;20025;-68
2021/05/14 09:05:19;;;;;;;39.42;24.45;;;15.10;99.90;;;;;;5027157;28;20026;-68
2021/05/14 09:10:48;;;;;;;36.92;24.92;;;15.00;99.90;;;;;;5024980;28;20045;-69
2021/05/14 09:13:16;;;;;;;37.38;23.80;;;15.00;99.90;;;;;;5029357;28;20030;-68
2021/05/14 09:15:41;;;;;;;33.20;22.58;;;15.20;99.90;;;;;;5028274;28;20100;-68
2021/05/14 09:18:19;;;;;;;34.42;23.65;;;15.40;99.90;;;;;;5022942;28;20466;-67
2021/05/14 09:20:53;;;;;;;32.92;21.77;;;15.10;99.90;;;;;;5024574;28;20767;-67
2021/05/14 09:23:18;;;;;;;36.60;22.30;;;15.00;99.90;;;;;;5023805;28;20075;-68
2021/05/14 09:26:21;;;;;;;28.65;20.83;;;15.40;99.90;;;;;;5032821;28;20025;-68
2021/05/14 09:28:48;;;;;;;30.38;19.58;;;16.00;99.90;;;;;;5020721;28;20028;-67
2021/05/14 09:31:32;;;;;;;27.40;17.13;;;15.60;99.90;;;;;;5026876;28;20025;-69
2021/05/14 09:34:00;;;;;;;31.27;18.77;;;15.00;99.90;;;;;;5013113;28;20037;-68
2021/05/14 09:36:44;;;;;;;31.67;18.95;;;14.90;99.90;;;;;;5038181;28;20036;-68
2021/05/14 09:39:09;;;;;;;29.80;19.60;;;14.90;99.90;;;;;;5038440;28;20063;-67
2021/05/14 09:41:36;;;;;;;30.80;19.85;;;14.40;99.90;;;;;;5022416;28;20493;-67
2021/05/14 09:44:03;;;;;;;30.63;19.13;;;14.40;99.90;;;;;;5020619;28;20440;-68
2021/05/14 09:46:31;;;;;;;26.73;18.23;;;14.50;99.90;;;;;;5030246;28;20104;-68
2021/05/14 09:52:44;;;;;;;24.40;15.32;;;14.80;99.90;;;;;;5016414;28;20036;-68
2021/05/14 10:07:20;;;;;;;27.05;18.02;;;15.40;99.90;;;;;;5027594;28;20521;-68
2021/05/14 10:09:50;;;;;;;27.67;18.77;;;15.40;99.90;;;;;;5026689;28;20481;-68
2021/05/14 10:12:54;;;;;;;24.92;17.73;;;15.70;99.90;;;;;;5032600;28;20032;-67
2021/05/14 10:15:38;;;;;;;28.45;18.45;;;15.90;99.90;;;;;;5029537;28;20039;-67
2021/05/14 10:21:09;;;;;;;27.08;16.92;;;16.00;99.90;;;;;;5033130;28;20496;-67
2021/05/14 10:23:54;;;;;;;29.48;17.15;;;15.80;99.90;;;;;;5031794;28;20018;-68
2021/05/14 10:29:14;;;;;;;24.10;16.05;;;16.00;99.90;;;;;;5028975;28;20360;-67
2021/05/14 10:31:58;;;;;;;21.90;16.02;;;15.80;99.90;;;;;;5031052;28;20018;-68
2021/05/14 10:41:11;;;;;;;24.17;15.75;;;16.60;99.90;;;;;;5019826;28;20045;-66
2021/05/14 10:46:58;;;;;;;21.70;14.95;;;16.60;99.90;;;;;;5026556;28;20032;-66
2021/05/14 10:50:05;;;;;;;22.67;15.88;;;16.80;99.90;;;;;;5029669;28;20037;-67
2021/05/14 10:53:08;;;;;;;24.15;16.27;;;17.00;99.90;;;;;;5030321;28;20017;-69
2021/05/14 11:01:59;;;;;;;29.50;16.33;;;17.20;99.90;;;;;;5027457;28;20021;-67
2021/05/14 11:04:45;;;;;;;22.27;14.80;;;16.60;99.90;;;;;;5023731;28;20022;-68
2021/05/14 11:07:34;;;;;;;27.10;17.88;;;16.40;99.90;;;;;;5023438;28;20045;-67
2021/05/14 11:10:12;;;;;;;23.98;17.60;;;16.20;99.90;;;;;;5017596;28;20022;-68
2021/05/14 11:13:15;;;;;;;31.10;18.10;;;16.10;99.90;;;;;;5029588;28;20047;-66
2021/05/14 11:22:27;;;;;;;23.85;17.70;;;15.80;99.90;;;;;;5033394;28;20088;-66
2021/05/14 11:25:01;;;;;;;23.80;16.33;;;16.20;99.90;;;;;;5027097;28;20388;-69
2021/05/14 11:27:50;;;;;;;25.05;17.80;;;16.20;99.90;;;;;;5019514;28;20029;-68
2021/05/14 11:30:35;;;;;;;24.10;16.45;;;16.30;99.90;;;;;;5032017;28;20295;-68
2021/05/14 11:36:23;;;;;;;21.55;14.55;;;15.70;99.90;;;;;;5041242;28;20083;-68
2021/05/14 11:39:09;;;;;;;22.55;15.05;;;16.20;99.90;;;;;;5022232;28;20030;-71
2021/05/14 11:41:34;;;;;;;23.77;16.23;;;16.70;99.90;;;;;;5019879;28;20447;-68
2021/05/14 11:44:03;;;;;;;22.00;16.13;;;17.20;99.90;;;;;;5018605;28;20026;-68
2021/05/14 11:46:47;;;;;;;23.17;15.77;;;16.90;99.90;;;;;;5018789;28;20025;-67
2021/05/14 11:52:15;;;;;;;21.10;14.93;;;16.20;99.90;;;;;;5013179;28;20115;-67
2021/05/14 11:57:54;;;;;;;23.27;15.30;;;16.20;99.90;;;;;;5026636;28;20052;-70
2021/05/14 12:00:35;;;;;;;22.30;15.60;;;16.60;99.90;;;;;;5026761;28;20032;-68
2021/05/14 12:03:16;;;;;;;19.92;14.80;;;17.30;99.90;;;;;;5028105;28;20021;-68
2021/05/14 12:05:43;;;;;;;21.88;14.65;;;17.50;99.90;;;;;;5024200;28;20497;-69
2021/05/14 12:08:17;;;;;;;18.63;12.70;;;17.50;99.90;;;;;;5027834;28;20038;-67
2021/05/14 12:10:50;;;;;;;21.50;15.02;;;17.60;99.90;;;;;;5028852;28;20048;-68
2021/05/14 12:19:25;;;;;;;;;;;17.00;99.90;;;;;;5027047;28;20116;-69
2021/05/14 12:21:50;;;;;;;24.10;16.17;;;16.90;99.90;;;;;;5028222;28;19987;-66
2021/05/14 12:24:53;;;;;;;26.38;17.85;;;16.80;99.90;;;;;;5021962;28;20109;-68
2021/05/14 12:27:22;;;;;;;25.65;18.33;;;16.20;99.90;;;;;;5029552;28;20032;-72
2021/05/14 12:33:10;;;;;;;32.30;19.33;;;15.80;99.90;;;;;;5028426;28;20112;-67
2021/05/14 12:35:54;;;;;;;29.75;19.92;;;15.90;99.90;;;;;;5037280;28;20101;-68
2021/05/14 12:38:35;;;;;;;27.90;18.70;;;15.80;99.90;;;;;;5012087;28;20022;-69
2021/05/14 12:41:38;;;;;;;23.65;17.58;;;15.80;99.90;;;;;;5032432;28;20076;-69
2021/05/14 12:44:18;;;;;;;25.67;18.10;;;15.90;99.90;;;;;;5027825;28;20079;-68
2021/05/14 12:50:26;;;;;;;29.17;18.70;;;15.70;99.90;;;;;;5035526;28;20241;-70
2021/05/14 12:53:20;;;;;;;22.65;16.52;;;15.80;99.90;;;;;;5036258;28;20024;-68
2021/05/14 12:55:45;;;;;;;27.45;16.92;;;15.80;99.90;;;;;;5027582;28;20013;-67
2021/05/14 12:58:48;;;;;;;23.92;16.33;;;15.80;99.90;;;;;;5036184;28;20029;-66
2021/05/14 13:01:33;;;;;;;;;;;16.20;99.90;;;;;;5021062;28;20059;-69
2021/05/14 13:04:24;;;;;;;27.85;18.42;;;16.80;99.90;;;;;;5024629;28;19905;-68
2021/05/14 13:07:11;;;;;;;26.20;18.42;;;16.60;99.90;;;;;;5027823;28;20064;-71
2021/05/14 13:09:48;;;;;;;23.92;16.33;;;16.50;99.90;;;;;;5025195;28;20086;-70
2021/05/14 13:12:13;;;;;;;26.02;16.52;;;16.50;99.90;;;;;;5015287;28;20366;-67
2021/05/14 13:14:39;;;;;;;25.10;15.85;;;16.30;99.90;;;;;;5027981;28;20021;-70
2021/05/14 13:22:34;;;;;;;22.35;16.27;;;16.10;99.90;;;;;;5021431;28;20116;-69
2021/05/14 13:28:02;;;;;;;;;;;16.20;99.90;;;;;;5024177;28;20032;-68
2021/05/14 13:30:28;;;;;;;24.80;16.65;;;15.80;99.90;;;;;;5025396;28;20311;-67
2021/05/14 13:33:31;;;;;;;25.00;16.63;;;15.10;99.90;;;;;;5017321;28;20018;-68
2021/05/14 13:39:18;;;;;;;28.73;18.83;;;14.80;99.90;;;;;;5029862;28;19915;-67
2021/05/14 13:47:50;;;;;;;24.52;16.58;;;14.40;99.90;;;;;;5019233;28;20052;-67
2021/05/14 13:50:15;;;;;;;28.40;17.60;;;14.40;99.90;;;;;;5013985;28;20101;-70
2021/05/14 13:55:44;;;;;;;29.30;19.33;;;14.30;99.90;;;;;;5019960;28;20076;-70
2021/05/14 13:58:09;;;;;;;34.03;21.30;;;14.10;99.90;;;;;;5025100;28;20021;-68
2021/05/14 14:06:42;;;;;;;;;;;13.50;99.90;;;;;;5013473;28;20041;-68
2021/05/14 14:12:10;;;;;;;;;;;13.20;99.90;;;;;;5013403;28;20100;-68
2021/05/14 14:14:55;;;;;;;47.40;27.50;;;13.10;99.90;;;;;;5013378;28;19905;-67
2021/05/14 14:17:39;;;;;;;47.15;29.00;;;13.00;99.90;;;;;;5018379;28;20133;-65
2021/05/14 14:23:45;;;;;;;59.55;38.17;;;13.00;99.90;;;;;;5029040;28;20032;-66
2021/05/14 14:29:33;;;;;;;60.08;36.65;;;12.90;99.90;;;;;;5031059;28;20524;-68
2021/05/14 14:32:17;;;;;;;53.42;33.75;;;12.80;99.90;;;;;;5031116;28;20041;-68
2021/05/14 14:34:43;;;;;;;54.90;36.20;;;12.70;99.90;;;;;;5032108;28;20022;-66
2021/05/14 14:40:32;;;;;;;50.28;35.30;;;12.80;99.90;;;;;;5030939;28;20040;-67
2021/05/14 14:43:16;;;;;;;55.25;34.80;;;12.80;99.90;;;;;;5019196;28;20489;-67
2021/05/14 14:45:42;;;;;;;56.03;34.65;;;12.90;99.90;;;;;;5028839;28;20177;-67
2021/05/14 14:48:26;;;;;;;57.42;33.65;;;12.90;99.90;;;;;;5029444;28;20536;-66
2021/05/14 14:51:11;;;;;;;55.67;37.40;;;12.80;99.90;;;;;;5010831;28;20117;-66
2021/05/14 14:53:37;;;;;;;64.35;39.15;;;12.90;99.90;;;;;;5010105;28;20026;-66
2021/05/14 14:56:21;;;;;;;59.22;37.42;;;13.20;99.90;;;;;;5029301;28;20075;-66
2021/05/14 15:01:31;;;;;;;57.83;37.72;;;13.20;99.90;;;;;;5029497;28;20071;-63
2021/05/14 15:03:56;;;;;;;56.75;40.00;;;13.20;99.90;;;;;;5019458;28;20022;-65
2021/05/14 15:06:22;;;;;;;58.75;34.15;;;13.20;99.90;;;;;;5026678;28;20018;-66
2021/05/14 15:09:06;;;;;;;55.78;35.63;;;13.00;99.90;;;;;;5027582;28;20267;-65
2021/05/14 15:11:51;;;;;;;54.88;33.80;;;12.80;99.90;;;;;;5027518;28;20417;-66
2021/05/14 15:14:35;;;;;;;44.95;27.63;;;12.70;99.90;;;;;;5014727;28;20661;-66
2021/05/14 15:17:00;;;;;;;47.47;30.17;;;12.30;99.90;;;;;;5025547;28;20021;-65
2021/05/14 15:19:45;;;;;;;33.05;24.13;;;12.40;99.90;;;;;;5011889;28;20056;-65
2021/05/14 15:22:29;;;;;;;48.40;28.75;;;12.20;99.90;;;;;;5019232;28;20023;-64
2021/05/14 15:25:14;;;;;;;37.90;26.50;;;12.40;99.90;;;;;;5014058;28;20029;-65
2021/05/14 15:33:28;;;;;;;28.45;21.52;;;12.60;99.90;;;;;;5022708;28;20028;-64
2021/05/14 15:35:56;;;;;;;25.80;20.80;;;12.40;99.90;;;;;;5026079;28;20413;-63
2021/05/14 15:41:06;;;;;;;26.02;20.75;;;12.20;99.90;;;;;;5025858;28;20033;-64
2021/05/14 15:43:32;;;;;;;31.38;21.88;;;12.30;99.90;;;;;;5027560;28;20306;-65
2021/05/14 15:45:57;;;;;;;25.70;20.33;;;12.40;99.90;;;;;;5016766;28;20025;-65
2021/05/14 15:48:44;;;;;;;30.45;20.50;;;12.40;99.90;;;;;;5014192;28;20471;-65
2021/05/14 15:51:10;;;;;;;32.22;21.92;;;12.40;99.90;;;;;;5021722;28;20564;-62
2021/05/14 15:56:58;;;;;;;;;;;12.20;99.90;;;;;;5024172;28;20079;-65
2021/05/14 15:59:24;;;;;;;26.77;21.75;;;12.40;99.90;;;;;;5014570;28;19914;-65
2021/05/14 16:02:08;;;;;;;26.75;20.75;;;12.50;99.90;;;;;;5015517;28;20033;-64
2021/05/14 16:04:34;;;;;;;31.27;21.45;;;12.50;99.90;;;;;;5021637;28;20030;-65
2021/05/14 16:10:03;;;;;;;31.92;20.63;;;12.10;99.90;;;;;;5018740;28;20041;-64
2021/05/14 16:12:48;;;;;;;34.70;23.10;;;12.10;99.90;;;;;;5026614;28;20068;-64
2021/05/14 16:15:32;;;;;;;32.53;23.05;;;12.20;99.90;;;;;;5015963;28;20026;-64
2021/05/14 16:18:02;;;;;;;34.17;22.27;;;12.30;99.90;;;;;;5009003;28;20493;-65
2021/05/14 16:23:31;;;;;;;;;;;12.70;99.90;;;;;;5021701;28;20032;-65
2021/05/14 16:28:59;;;;;;;;;;;12.90;99.90;;;;;;5010310;28;20121;-65
2021/05/14 16:31:44;;;;;;;37.58;23.52;;;12.80;99.90;;;;;;5018297;28;20358;-66
2021/05/14 16:34:10;;;;;;;39.35;24.38;;;12.80;99.90;;;;;;5028281;28;20568;-65
2021/05/14 16:36:54;;;;;;;45.55;27.23;;;12.70;99.90;;;;;;5019364;28;20100;-64
2021/05/14 16:39:19;;;;;;;39.97;27.35;;;12.80;99.90;;;;;;5012397;28;20551;-65
2021/05/14 16:41:45;;;;;;;45.78;27.33;;;12.80;99.90;;;;;;5015957;28;20025;-66
2021/05/14 16:47:14;;;;;;;41.15;25.80;;;13.00;99.90;;;;;;5012056;28;20048;-66
2021/05/14 16:49:58;;;;;;;37.10;25.75;;;13.20;99.90;;;;;;5011650;28;20030;-65
2021/05/14 16:52:24;;;;;;;39.13;25.10;;;13.30;99.90;;;;;;5022701;28;20374;-66
2021/05/14 16:58:11;;;;;;;37.10;24.88;;;13.70;99.90;;;;;;5015098;28;20385;-64
2021/05/14 17:03:21;;;;;;;41.65;26.60;;;13.60;99.90;;;;;;5009951;28;20119;-65
2021/05/14 17:06:10;;;;;;;36.67;25.10;;;13.60;99.90;;;;;;5015117;28;20497;-65
2021/05/14 17:08:55;;;;;;;47.35;28.38;;;13.50;99.90;;;;;;5017172;28;20388;-64
2021/05/14 17:11:21;;;;;;;45.45;27.88;;;13.50;99.90;;;;;;5021974;28;20037;-65
2021/05/14 17:13:46;;;;;;;46.33;28.52;;;13.50;99.90;;;;;;5015537;28;20388;-65
2021/05/14 17:16:13;;;;;;;48.55;28.50;;;13.50;99.90;;;;;;5015888;28;20034;-66
2021/05/14 17:18:38;;;;;;;43.22;28.63;;;13.60;99.90;;;;;;5012629;28;20235;-65
2021/05/14 17:24:08;;;;;;;35.83;25.98;;;13.50;99.90;;;;;;5020370;28;20024;-65
2021/05/14 17:26:33;;;;;;;39.80;24.42;;;13.40;99.90;;;;;;5016169;28;20025;-64
2021/05/14 17:28:59;;;;;;;39.55;25.65;;;13.40;99.90;;;;;;5025844;28;20400;-65
2021/05/14 17:31:25;;;;;;;37.15;24.75;;;13.40;99.90;;;;;;5022858;28;20071;-66
2021/05/14 17:33:51;;;;;;;39.50;25.05;;;13.40;99.90;;;;;;5024791;28;20052;-65
2021/05/14 17:36:37;;;;;;;41.65;25.38;;;13.40;99.90;;;;;;5029498;28;20036;-64
2021/05/14 17:39:07;;;;;;;38.40;26.20;;;13.30;99.90;;;;;;5024478;28;20037;-65
2021/05/14 17:41:52;;;;;;;36.40;26.58;;;13.30;99.90;;;;;;5024501;28;20060;-65
2021/05/14 17:44:22;;;;;;;41.10;27.23;;;13.40;99.90;;;;;;5015989;28;20456;-66
2021/05/14 17:46:49;;;;;;;38.70;25.88;;;13.50;99.90;;;;;;5017714;28;20497;-64
2021/05/14 17:49:15;;;;;;;38.05;25.98;;;13.40;99.90;;;;;;5022877;28;20123;-65
2021/05/14 17:54:43;;;;;;;40.67;26.85;;;13.50;99.90;;;;;;5028299;28;20032;-64
2021/05/14 17:59:53;;;;;;;44.40;28.52;;;13.40;99.90;;;;;;5025957;28;20381;-65
2021/05/14 18:05:22;;;;;;;37.55;25.58;;;13.30;99.90;;;;;;5029705;28;20041;-66
2021/05/14 18:07:47;;;;;;;39.38;27.27;;;13.40;99.90;;;;;;5030668;28;20072;-67